Home   Weather   USA   Downey   Past weeks
Flag for USA

Past Weather in Downey, California, USA — Yesterday and Last 2 Weeks

Currently: 54 °F. Fog. (Weather station: Long Beach Airport, USA). See more current weather

Past Weather in Downey — Graph

°F

Downey Temperature Yesterday

Maximum temperature yesterday: 68 °F (at 2:53 pm)
Minimum temperature yesterday: 52 °F (at 12:22 am)
Average temperature yesterday: 57 °F

High & Low Weather Summary for the Past Weeks

 TemperatureHumidityPressure
High86 °F (Nov 21, 1:53 pm)100% (Nov 30, 2:53 am)30.26 "Hg (Nov 30, 2:53 am)
Low47 °F (Nov 27, 5:53 am)4% (Nov 25, 12:53 pm)29.90 "Hg (Nov 23, 3:53 pm)
Average61 °F62%30.06 "Hg
* Reported Nov 16 6:01 am — Dec 1 6:53 am, Downey. Weather by CustomWeather, © 2021

Note: Actual official high and low records may vary slightly from our data, if they occured in-between our weather recording intervals... More about our weather records

Downey Weather History for the Previous 24 Hours

Scroll right to see more
 ConditionsComfort  
Time TempWeatherWind HumidityBarometerVisibility
6:53 am
Wed, Dec 1
54 °FFog.No wind100%30.08 "Hg0 mi
5:53 am53 °FFog.No wind96%30.07 "Hg0 mi
5:33 am52 °FFog.No wind97%30.07 "Hg0 mi
5:03 am51 °FFog.3 mph96%30.06 "Hg0 mi
4:53 am50 °FFog.No wind100%30.06 "Hg0 mi
4:14 am50 °FFog.No wind96%30.05 "Hg1 mi
4:02 am49 °FFog.3 mph97%30.04 "Hg0 mi
3:34 am50 °FFog.No wind93%30.03 "Hg1 mi
3:05 am51 °FFog.No wind92%30.04 "Hg3 mi
2:53 am51 °FFog.No wind92%30.03 "Hg2 mi
1:53 am52 °FFog.No wind93%30.02 "Hg3 mi
12:53 am52 °FFog.No wind89%30.02 "Hg3 mi
11:53 pm
Tue, Nov 30
54 °FFog.No wind90%30.02 "Hg4 mi
10:53 pm56 °FFog.No wind87%30.02 "Hg4 mi
9:53 pm56 °FClear.5 mph84%30.02 "Hg4 mi
8:53 pm57 °FClear.5 mph83%30.02 "Hg4 mi
7:53 pm58 °FClear.5 mph84%30.02 "Hg5 mi
6:53 pm59 °FClear.No wind84%30.01 "Hg5 mi
5:53 pm61 °FClear.3 mph72%30.00 "Hg6 mi
4:53 pm63 °FClear.3 mph65%29.98 "Hg5 mi
3:53 pm67 °FSunny.No wind61%29.98 "Hg4 mi
2:53 pm68 °FSunny.5 mph63%29.97 "Hg4 mi
1:53 pm65 °FSunny.6 mph68%29.99 "Hg4 mi
12:53 pm65 °FSunny.7 mph68%29.99 "Hg4 mi
11:53 am64 °FSunny.No wind70%30.02 "Hg4 mi
11:18 am63 °FSunny.No wind73%30.05 "Hg3 mi
11:00 am62 °FSunny.No wind75%30.06 "Hg2 mi
9:53 am57 °FFog.No wind93%30.07 "Hg2 mi
9:19 am56 °FFog.3 mph97%30.08 "Hg1 mi
8:53 am55 °FFog.No wind96%30.07 "Hg1 mi
8:11 am54 °FFog.No wind100%30.07 "Hg1 mi
Weather by CustomWeather, © 2021

See weather overview